sensor_id;sensor_type;location;lat;lon;timestamp;pressure;altitude;pressure_sealevel;temperature;humidity
28027;BME280;15344;52.342;-1.290;2023-11-19T00:00:58;99146.42;;;13.08;100.00
28027;BME280;15344;52.342;-1.290;2023-11-19T00:03:23;99139.22;;;13.38;100.00
28027;BME280;15344;52.342;-1.290;2023-11-19T00:05:49;99139.27;;;12.42;100.00
28027;BME280;15344;52.342;-1.290;2023-11-19T00:08:15;99129.94;;;12.72;100.00
28027;BME280;15344;52.342;-1.290;2023-11-19T00:10:40;99127.08;;;12.17;100.00
28027;BME280;15344;52.342;-1.290;2023-11-19T00:13:06;99120.44;;;12.54;100.00
28027;BME280;15344;52.342;-1.290;2023-11-19T00:15:32;99122.51;;;11.94;100.00
28027;BME280;15344;52.342;-1.290;2023-11-19T00:17:58;99120.20;;;11.83;100.00
28027;BME280;15344;52.342;-1.290;2023-11-19T00:20:23;99130.74;;;12.44;100.00
28027;BME280;15344;52.342;-1.290;2023-11-19T00:22:49;99128.90;;;12.40;100.00
28027;BME280;15344;52.342;-1.290;2023-11-19T00:25:14;99122.13;;;12.49;100.00
28027;BME280;15344;52.342;-1.290;2023-11-19T00:27:39;99118.88;;;11.49;100.00
28027;BME280;15344;52.342;-1.290;2023-11-19T00:30:15;99129.35;;;12.64;100.00
28027;BME280;15344;52.342;-1.290;2023-11-19T00:32:31;99133.91;;;12.96;100.00
28027;BME280;15344;52.342;-1.290;2023-11-19T00:34:56;99136.88;;;13.17;100.00
28027;BME280;15344;52.342;-1.290;2023-11-19T00:37:22;99133.53;;;12.77;100.00
28027;BME280;15344;52.342;-1.290;2023-11-19T00:39:48;99135.12;;;12.72;100.00
28027;BME280;15344;52.342;-1.290;2023-11-19T00:42:13;99133.14;;;12.70;100.00
28027;BME280;15344;52.342;-1.290;2023-11-19T00:44:39;99129.41;;;12.80;100.00
28027;BME280;15344;52.342;-1.290;2023-11-19T00:47:04;99126.13;;;13.11;100.00
28027;BME280;15344;52.342;-1.290;2023-11-19T00:49:30;99123.12;;;12.88;100.00
28027;BME280;15344;52.342;-1.290;2023-11-19T00:51:56;99115.78;;;13.39;100.00
28027;BME280;15344;52.342;-1.290;2023-11-19T00:54:21;99113.86;;;12.63;100.00
28027;BME280;15344;52.342;-1.290;2023-11-19T00:56:46;99111.23;;;12.12;100.00
28027;BME280;15344;52.342;-1.290;2023-11-19T00:59:12;99107.16;;;12.21;100.00
28027;BME280;15344;52.342;-1.290;2023-11-19T01:01:37;99101.86;;;11.97;100.00
28027;BME280;15344;52.342;-1.290;2023-11-19T01:04:03;99111.16;;;11.29;100.00
28027;BME280;15344;52.342;-1.290;2023-11-19T01:06:28;99111.83;;;11.91;100.00
28027;BME280;15344;52.342;-1.290;2023-11-19T01:08:53;99108.52;;;11.30;100.00
28027;BME280;15344;52.342;-1.290;2023-11-19T01:11:20;99101.17;;;11.84;100.00
28027;BME280;15344;52.342;-1.290;2023-11-19T01:13:45;99096.28;;;11.91;100.00
28027;BME280;15344;52.342;-1.290;2023-11-19T01:16:09;99096.36;;;12.64;100.00
28027;BME280;15344;52.342;-1.290;2023-11-19T01:18:35;99099.87;;;12.67;100.00
28027;BME280;15344;52.342;-1.290;2023-11-19T01:21:00;99093.50;;;12.16;100.00
28027;BME280;15344;52.342;-1.290;2023-11-19T01:23:25;99089.35;;;12.80;100.00
28027;BME280;15344;52.342;-1.290;2023-11-19T01:25:56;99083.48;;;11.77;100.00
28027;BME280;15344;52.342;-1.290;2023-11-19T01:28:17;99082.93;;;11.59;100.00
28027;BME280;15344;52.342;-1.290;2023-11-19T01:30:42;99075.68;;;11.67;100.00
28027;BME280;15344;52.342;-1.290;2023-11-19T01:33:08;99069.69;;;11.76;100.00
28027;BME280;15344;52.342;-1.290;2023-11-19T01:35:33;99078.11;;;11.83;100.00
28027;BME280;15344;52.342;-1.290;2023-11-19T01:37:59;99081.09;;;11.85;100.00
28027;BME280;15344;52.342;-1.290;2023-11-19T01:40:24;99089.06;;;12.34;100.00
28027;BME280;15344;52.342;-1.290;2023-11-19T01:42:50;99094.57;;;12.06;100.00
28027;BME280;15344;52.342;-1.290;2023-11-19T01:45:22;99085.27;;;11.97;100.00
28027;BME280;15344;52.342;-1.290;2023-11-19T01:47:40;99084.95;;;11.84;100.00
28027;BME280;15344;52.342;-1.290;2023-11-19T01:50:08;99087.09;;;12.11;100.00
28027;BME280;15344;52.342;-1.290;2023-11-19T01:52:32;99093.72;;;11.99;100.00
28027;BME280;15344;52.342;-1.290;2023-11-19T01:54:57;99090.64;;;11.69;100.00
28027;BME280;15344;52.342;-1.290;2023-11-19T01:57:23;99098.42;;;11.82;100.00
28027;BME280;15344;52.342;-1.290;2023-11-19T01:59:48;99094.03;;;12.30;100.00
28027;BME280;15344;52.342;-1.290;2023-11-19T02:02:13;99092.52;;;11.91;100.00
28027;BME280;15344;52.342;-1.290;2023-11-19T02:04:39;99089.21;;;12.28;100.00
28027;BME280;15344;52.342;-1.290;2023-11-19T02:07:04;99091.63;;;12.42;100.00
28027;BME280;15344;52.342;-1.290;2023-11-19T02:09:29;99088.22;;;12.54;100.00
28027;BME280;15344;52.342;-1.290;2023-11-19T02:11:55;99083.83;;;12.86;100.00
28027;BME280;15344;52.342;-1.290;2023-11-19T02:14:25;99074.58;;;11.52;100.00
28027;BME280;15344;52.342;-1.290;2023-11-19T02:16:45;99073.94;;;12.35;100.00
28027;BME280;15344;52.342;-1.290;2023-11-19T02:19:10;99071.87;;;12.38;100.00
28027;BME280;15344;52.342;-1.290;2023-11-19T02:21:36;99065.26;;;12.74;100.00
28027;BME280;15344;52.342;-1.290;2023-11-19T02:24:06;99059.07;;;12.98;100.00
28027;BME280;15344;52.342;-1.290;2023-11-19T02:26:30;99059.20;;;12.82;100.00
28027;BME280;15344;52.342;-1.290;2023-11-19T02:28:52;99069.54;;;11.84;100.00
28027;BME280;15344;52.342;-1.290;2023-11-19T02:31:17;99069.40;;;12.73;100.00
28027;BME280;15344;52.342;-1.290;2023-11-19T02:33:43;99063.04;;;12.01;100.00
28027;BME280;15344;52.342;-1.290;2023-11-19T02:36:09;99058.86;;;12.33;100.00
28027;BME280;15344;52.342;-1.290;2023-11-19T02:38:33;99055.25;;;11.87;100.00
28027;BME280;15344;52.342;-1.290;2023-11-19T02:40:59;99045.91;;;12.20;100.00
28027;BME280;15344;52.342;-1.290;2023-11-19T02:43:25;99051.40;;;11.53;100.00
28027;BME280;15344;52.342;-1.290;2023-11-19T02:45:50;99055.55;;;12.28;100.00
28027;BME280;15344;52.342;-1.290;2023-11-19T02:48:15;99049.30;;;12.28;100.00
28027;BME280;15344;52.342;-1.290;2023-11-19T02:50:41;99053.52;;;12.62;100.00
28027;BME280;15344;52.342;-1.290;2023-11-19T02:53:06;99061.79;;;12.19;100.00
28027;BME280;15344;52.342;-1.290;2023-11-19T02:55:32;99062.11;;;13.09;100.00
28027;BME280;15344;52.342;-1.290;2023-11-19T02:57:57;99068.10;;;12.03;100.00
28027;BME280;15344;52.342;-1.290;2023-11-19T03:00:22;99071.09;;;12.33;100.00
28027;BME280;15344;52.342;-1.290;2023-11-19T03:02:48;99068.86;;;12.02;100.00
28027;BME280;15344;52.342;-1.290;2023-11-19T03:05:14;99069.35;;;12.97;100.00
28027;BME280;15344;52.342;-1.290;2023-11-19T03:07:40;99070.65;;;12.42;100.00
28027;BME280;15344;52.342;-1.290;2023-11-19T03:10:07;99073.16;;;11.75;100.00
28027;BME280;15344;52.342;-1.290;2023-11-19T03:12:31;99065.10;;;12.47;100.00
28027;BME280;15344;52.342;-1.290;2023-11-19T03:14:56;99062.42;;;12.14;100.00
28027;BME280;15344;52.342;-1.290;2023-11-19T03:17:22;99055.45;;;12.87;100.00
28027;BME280;15344;52.342;-1.290;2023-11-19T03:19:47;99059.39;;;12.38;100.00
28027;BME280;15344;52.342;-1.290;2023-11-19T03:22:14;99055.72;;;12.71;100.00
28027;BME280;15344;52.342;-1.290;2023-11-19T03:24:39;99050.27;;;12.69;100.00
28027;BME280;15344;52.342;-1.290;2023-11-19T03:27:04;99050.30;;;12.54;100.00
28027;BME280;15344;52.342;-1.290;2023-11-19T03:29:29;99046.97;;;13.15;100.00
28027;BME280;15344;52.342;-1.290;2023-11-19T03:31:55;99043.07;;;13.04;100.00
28027;BME280;15344;52.342;-1.290;2023-11-19T03:34:20;99048.75;;;12.47;100.00
28027;BME280;15344;52.342;-1.290;2023-11-19T03:36:45;99045.10;;;12.64;100.00
28027;BME280;15344;52.342;-1.290;2023-11-19T03:39:10;99044.87;;;12.80;100.00
28027;BME280;15344;52.342;-1.290;2023-11-19T03:41:35;99038.56;;;12.87;100.00
28027;BME280;15344;52.342;-1.290;2023-11-19T03:44:01;99028.11;;;12.67;100.00
28027;BME280;15344;52.342;-1.290;2023-11-19T03:46:26;99027.72;;;13.01;100.00
28027;BME280;15344;52.342;-1.290;2023-11-19T03:48:52;99022.50;;;12.84;100.00
28027;BME280;15344;52.342;-1.290;2023-11-19T03:51:17;99017.63;;;13.03;100.00
28027;BME280;15344;52.342;-1.290;2023-11-19T03:53:42;99024.97;;;12.55;100.00
28027;BME280;15344;52.342;-1.290;2023-11-19T03:56:08;99015.42;;;13.17;100.00
28027;BME280;15344;52.342;-1.290;2023-11-19T03:58:33;99019.56;;;12.37;100.00
28027;BME280;15344;52.342;-1.290;2023-11-19T04:00:59;99014.93;;;12.99;100.00
28027;BME280;15344;52.342;-1.290;2023-11-19T04:03:24;99019.68;;;12.59;100.00
28027;BME280;15344;52.342;-1.290;2023-11-19T04:05:49;99016.90;;;11.59;100.00
28027;BME280;15344;52.342;-1.290;2023-11-19T04:08:20;99014.75;;;12.05;100.00
28027;BME280;15344;52.342;-1.290;2023-11-19T04:10:40;99018.42;;;11.94;100.00
28027;BME280;15344;52.342;-1.290;2023-11-19T04:13:05;99017.24;;;12.12;100.00
28027;BME280;15344;52.342;-1.290;2023-11-19T04:15:30;99026.36;;;12.31;100.00
28027;BME280;15344;52.342;-1.290;2023-11-19T04:17:56;99033.85;;;11.72;100.00
28027;BME280;15344;52.342;-1.290;2023-11-19T04:20:22;99036.90;;;12.10;100.00
28027;BME280;15344;52.342;-1.290;2023-11-19T04:22:47;99039.54;;;11.95;100.00
28027;BME280;15344;52.342;-1.290;2023-11-19T04:25:12;99040.90;;;11.97;100.00
28027;BME280;15344;52.342;-1.290;2023-11-19T04:27:38;99042.81;;;11.75;100.00
28027;BME280;15344;52.342;-1.290;2023-11-19T04:30:04;99042.01;;;12.51;100.00
28027;BME280;15344;52.342;-1.290;2023-11-19T04:32:28;99036.48;;;11.93;100.00
28027;BME280;15344;52.342;-1.290;2023-11-19T04:34:55;99040.36;;;12.21;100.00
28027;BME280;15344;52.342;-1.290;2023-11-19T04:37:19;99038.41;;;11.37;100.00
28027;BME280;15344;52.342;-1.290;2023-11-19T04:39:44;99035.70;;;12.12;100.00
28027;BME280;15344;52.342;-1.290;2023-11-19T04:42:09;99030.98;;;11.57;100.00
28027;BME280;15344;52.342;-1.290;2023-11-19T04:44:35;99039.14;;;12.16;100.00
28027;BME280;15344;52.342;-1.290;2023-11-19T04:47:00;99033.89;;;12.24;100.00
28027;BME280;15344;52.342;-1.290;2023-11-19T04:49:25;99037.73;;;11.78;100.00
28027;BME280;15344;52.342;-1.290;2023-11-19T04:51:51;99035.82;;;11.75;100.00
28027;BME280;15344;52.342;-1.290;2023-11-19T04:54:16;99041.02;;;11.93;100.00
28027;BME280;15344;52.342;-1.290;2023-11-19T04:56:45;99039.41;;;12.43;100.00
28027;BME280;15344;52.342;-1.290;2023-11-19T04:59:07;99043.98;;;11.67;100.00
28027;BME280;15344;52.342;-1.290;2023-11-19T05:01:33;99044.91;;;12.05;100.00
28027;BME280;15344;52.342;-1.290;2023-11-19T05:04:03;99042.66;;;11.42;100.00
28027;BME280;15344;52.342;-1.290;2023-11-19T05:06:26;99054.20;;;12.25;100.00
28027;BME280;15344;52.342;-1.290;2023-11-19T05:08:49;99054.11;;;11.53;100.00
28027;BME280;15344;52.342;-1.290;2023-11-19T05:11:14;99049.58;;;11.92;100.00
28027;BME280;15344;52.342;-1.290;2023-11-19T05:13:39;99040.45;;;12.16;100.00
28027;BME280;15344;52.342;-1.290;2023-11-19T05:16:06;99043.23;;;11.79;100.00
28027;BME280;15344;52.342;-1.290;2023-11-19T05:18:30;99038.02;;;12.24;100.00
28027;BME280;15344;52.342;-1.290;2023-11-19T05:20:55;99033.11;;;11.83;100.00
28027;BME280;15344;52.342;-1.290;2023-11-19T05:23:20;99042.87;;;11.91;100.00
28027;BME280;15344;52.342;-1.290;2023-11-19T05:25:46;99042.86;;;12.52;100.00
28027;BME280;15344;52.342;-1.290;2023-11-19T05:28:11;99034.55;;;11.72;100.00
28027;BME280;15344;52.342;-1.290;2023-11-19T05:30:37;99029.77;;;11.49;100.00
28027;BME280;15344;52.342;-1.290;2023-11-19T05:33:02;99038.11;;;11.40;100.00
28027;BME280;15344;52.342;-1.290;2023-11-19T05:35:28;99044.66;;;12.26;100.00
28027;BME280;15344;52.342;-1.290;2023-11-19T05:37:53;99044.34;;;12.07;100.00
28027;BME280;15344;52.342;-1.290;2023-11-19T05:40:19;99039.49;;;12.14;100.00
28027;BME280;15344;52.342;-1.290;2023-11-19T05:42:44;99040.99;;;11.89;100.00
28027;BME280;15344;52.342;-1.290;2023-11-19T05:45:11;99042.69;;;11.42;100.00
28027;BME280;15344;52.342;-1.290;2023-11-19T05:47:35;99035.65;;;11.66;100.00
28027;BME280;15344;52.342;-1.290;2023-11-19T05:50:00;99037.88;;;11.64;100.00
28027;BME280;15344;52.342;-1.290;2023-11-19T05:52:25;99045.88;;;11.33;100.00
28027;BME280;15344;52.342;-1.290;2023-11-19T05:54:51;99046.42;;;12.01;100.00
28027;BME280;15344;52.342;-1.290;2023-11-19T05:57:16;99038.48;;;11.04;100.00
28027;BME280;15344;52.342;-1.290;2023-11-19T05:59:42;99041.49;;;11.89;100.00
28027;BME280;15344;52.342;-1.290;2023-11-19T06:02:07;99043.76;;;11.83;100.00
28027;BME280;15344;52.342;-1.290;2023-11-19T06:04:33;99046.01;;;12.04;100.00
28027;BME280;15344;52.342;-1.290;2023-11-19T06:06:59;99043.28;;;11.74;100.00
28027;BME280;15344;52.342;-1.290;2023-11-19T06:09:24;99038.36;;;11.43;100.00
28027;BME280;15344;52.342;-1.290;2023-11-19T06:11:49;99043.20;;;11.44;100.00
28027;BME280;15344;52.342;-1.290;2023-11-19T06:14:15;99042.94;;;11.52;100.00
28027;BME280;15344;52.342;-1.290;2023-11-19T06:16:40;99046.47;;;12.09;100.00
28027;BME280;15344;52.342;-1.290;2023-11-19T06:19:05;99044.31;;;12.32;100.00
28027;BME280;15344;52.342;-1.290;2023-11-19T06:21:30;99044.46;;;11.85;100.00
28027;BME280;15344;52.342;-1.290;2023-11-19T06:23:56;99040.83;;;12.36;100.00
28027;BME280;15344;52.342;-1.290;2023-11-19T06:26:21;99041.49;;;12.27;100.00
28027;BME280;15344;52.342;-1.290;2023-11-19T06:28:46;99044.81;;;12.42;100.00
28027;BME280;15344;52.342;-1.290;2023-11-19T06:31:12;99043.91;;;12.41;100.00
28027;BME280;15344;52.342;-1.290;2023-11-19T06:33:37;99045.52;;;12.64;100.00
28027;BME280;15344;52.342;-1.290;2023-11-19T06:36:04;99047.28;;;12.77;100.00
28027;BME280;15344;52.342;-1.290;2023-11-19T06:38:29;99053.30;;;13.21;100.00
28027;BME280;15344;52.342;-1.290;2023-11-19T06:40:54;99051.19;;;12.58;100.00
28027;BME280;15344;52.342;-1.290;2023-11-19T06:43:19;99044.45;;;13.35;100.00
28027;BME280;15344;52.342;-1.290;2023-11-19T06:45:45;99043.88;;;13.19;100.00
28027;BME280;15344;52.342;-1.290;2023-11-19T06:48:10;99047.58;;;12.62;100.00
28027;BME280;15344;52.342;-1.290;2023-11-19T06:50:35;99048.06;;;12.48;100.00
28027;BME280;15344;52.342;-1.290;2023-11-19T06:53:01;99042.13;;;12.41;100.00
28027;BME280;15344;52.342;-1.290;2023-11-19T06:55:26;99046.94;;;12.65;100.00
28027;BME280;15344;52.342;-1.290;2023-11-19T06:57:51;99045.42;;;12.11;100.00
28027;BME280;15344;52.342;-1.290;2023-11-19T07:00:18;99045.73;;;12.09;100.00
28027;BME280;15344;52.342;-1.290;2023-11-19T07:02:42;99043.68;;;12.23;100.00
28027;BME280;15344;52.342;-1.290;2023-11-19T07:05:08;99040.52;;;11.97;100.00
28027;BME280;15344;52.342;-1.290;2023-11-19T07:07:33;99031.49;;;11.88;100.00
28027;BME280;15344;52.342;-1.290;2023-11-19T07:09:58;99029.73;;;12.95;100.00
28027;BME280;15344;52.342;-1.290;2023-11-19T07:12:25;99033.70;;;12.89;100.00
28027;BME280;15344;52.342;-1.290;2023-11-19T07:14:49;99034.41;;;12.92;100.00
28027;BME280;15344;52.342;-1.290;2023-11-19T07:17:15;99037.02;;;12.34;100.00
28027;BME280;15344;52.342;-1.290;2023-11-19T07:19:41;99036.88;;;12.65;100.00
28027;BME280;15344;52.342;-1.290;2023-11-19T07:22:06;99038.19;;;12.11;100.00
28027;BME280;15344;52.342;-1.290;2023-11-19T07:24:32;99042.57;;;11.73;100.00
28027;BME280;15344;52.342;-1.290;2023-11-19T07:26:57;99049.43;;;12.21;100.00
28027;BME280;15344;52.342;-1.290;2023-11-19T07:29:23;99046.30;;;12.51;100.00
28027;BME280;15344;52.342;-1.290;2023-11-19T07:31:48;99045.80;;;11.87;100.00
28027;BME280;15344;52.342;-1.290;2023-11-19T07:34:12;99044.33;;;12.40;100.00
28027;BME280;15344;52.342;-1.290;2023-11-19T07:36:38;99042.38;;;11.79;100.00
28027;BME280;15344;52.342;-1.290;2023-11-19T07:39:03;99037.44;;;11.81;100.00
28027;BME280;15344;52.342;-1.290;2023-11-19T07:41:28;99031.20;;;12.11;100.00
28027;BME280;15344;52.342;-1.290;2023-11-19T07:43:55;99036.49;;;12.81;100.00
28027;BME280;15344;52.342;-1.290;2023-11-19T07:46:19;99039.92;;;11.87;100.00
28027;BME280;15344;52.342;-1.290;2023-11-19T07:48:44;99040.76;;;12.30;100.00
28027;BME280;15344;52.342;-1.290;2023-11-19T07:51:11;99038.71;;;12.48;100.00
28027;BME280;15344;52.342;-1.290;2023-11-19T07:53:35;99038.08;;;12.21;100.00
28027;BME280;15344;52.342;-1.290;2023-11-19T07:56:00;99044.57;;;12.35;100.00
28027;BME280;15344;52.342;-1.290;2023-11-19T07:58:26;99049.41;;;12.27;100.00
28027;BME280;15344;52.342;-1.290;2023-11-19T08:00:51;99055.56;;;12.68;100.00
28027;BME280;15344;52.342;-1.290;2023-11-19T08:03:16;99049.88;;;12.06;100.00
28027;BME280;15344;52.342;-1.290;2023-11-19T08:05:41;99050.86;;;12.18;100.00
28027;BME280;15344;52.342;-1.290;2023-11-19T08:08:07;99048.46;;;12.50;100.00
28027;BME280;15344;52.342;-1.290;2023-11-19T08:10:32;99042.59;;;11.54;100.00
28027;BME280;15344;52.342;-1.290;2023-11-19T08:12:57;99047.48;;;12.00;100.00
28027;BME280;15344;52.342;-1.290;2023-11-19T08:15:23;99042.33;;;11.90;100.00
28027;BME280;15344;52.342;-1.290;2023-11-19T08:17:48;99044.27;;;12.89;100.00
28027;BME280;15344;52.342;-1.290;2023-11-19T08:20:14;99041.50;;;12.35;100.00
28027;BME280;15344;52.342;-1.290;2023-11-19T08:22:39;99044.39;;;12.78;100.00
28027;BME280;15344;52.342;-1.290;2023-11-19T08:25:06;99041.47;;;12.04;100.00
28027;BME280;15344;52.342;-1.290;2023-11-19T08:27:30;99042.43;;;12.05;100.00
28027;BME280;15344;52.342;-1.290;2023-11-19T08:29:56;99044.04;;;12.36;100.00
28027;BME280;15344;52.342;-1.290;2023-11-19T08:32:21;99041.63;;;12.67;100.00
28027;BME280;15344;52.342;-1.290;2023-11-19T08:34:46;99036.96;;;13.01;100.00
28027;BME280;15344;52.342;-1.290;2023-11-19T08:37:11;99039.41;;;13.45;100.00
28027;BME280;15344;52.342;-1.290;2023-11-19T08:39:36;99041.78;;;13.44;100.00
28027;BME280;15344;52.342;-1.290;2023-11-19T08:42:02;99038.43;;;12.75;100.00
28027;BME280;15344;52.342;-1.290;2023-11-19T08:44:27;99035.63;;;13.45;100.00
28027;BME280;15344;52.342;-1.290;2023-11-19T08:46:52;99037.77;;;12.95;100.00
28027;BME280;15344;52.342;-1.290;2023-11-19T08:49:18;99035.91;;;12.47;100.00
28027;BME280;15344;52.342;-1.290;2023-11-19T08:51:43;99033.81;;;12.64;100.00
28027;BME280;15344;52.342;-1.290;2023-11-19T08:54:08;99039.43;;;12.79;100.00
28027;BME280;15344;52.342;-1.290;2023-11-19T08:56:33;99040.75;;;11.99;100.00
28027;BME280;15344;52.342;-1.290;2023-11-19T08:58:59;99039.50;;;12.51;100.00
28027;BME280;15344;52.342;-1.290;2023-11-19T09:01:24;99039.78;;;12.31;100.00
28027;BME280;15344;52.342;-1.290;2023-11-19T09:03:49;99035.68;;;12.69;100.00
28027;BME280;15344;52.342;-1.290;2023-11-19T09:06:14;99034.42;;;12.82;100.00
28027;BME280;15344;52.342;-1.290;2023-11-19T09:08:40;99034.01;;;12.88;100.00
28027;BME280;15344;52.342;-1.290;2023-11-19T09:11:07;99036.77;;;13.07;100.00
28027;BME280;15344;52.342;-1.290;2023-11-19T09:13:31;99032.77;;;12.60;100.00
28027;BME280;15344;52.342;-1.290;2023-11-19T09:15:56;99030.22;;;12.91;100.00
28027;BME280;15344;52.342;-1.290;2023-11-19T09:18:22;99028.94;;;13.30;100.00
28027;BME280;15344;52.342;-1.290;2023-11-19T09:20:47;99027.44;;;14.02;100.00
28027;BME280;15344;52.342;-1.290;2023-11-19T09:23:13;99032.86;;;13.24;100.00
28027;BME280;15344;52.342;-1.290;2023-11-19T09:25:38;99031.38;;;12.45;100.00
28027;BME280;15344;52.342;-1.290;2023-11-19T09:28:04;99027.92;;;12.21;100.00
28027;BME280;15344;52.342;-1.290;2023-11-19T09:30:29;99034.92;;;11.50;100.00
28027;BME280;15344;52.342;-1.290;2023-11-19T09:32:55;99024.16;;;12.02;100.00
28027;BME280;15344;52.342;-1.290;2023-11-19T09:35:21;99030.86;;;12.45;100.00
28027;BME280;15344;52.342;-1.290;2023-11-19T09:37:47;99026.20;;;12.38;100.00
28027;BME280;15344;52.342;-1.290;2023-11-19T09:40:12;99022.61;;;12.65;100.00
28027;BME280;15344;52.342;-1.290;2023-11-19T09:42:43;99024.11;;;13.58;100.00
28027;BME280;15344;52.342;-1.290;2023-11-19T09:45:05;99021.88;;;12.73;100.00
28027;BME280;15344;52.342;-1.290;2023-11-19T09:47:28;99021.29;;;12.84;100.00
28027;BME280;15344;52.342;-1.290;2023-11-19T09:49:54;99017.39;;;12.91;100.00
28027;BME280;15344;52.342;-1.290;2023-11-19T09:52:19;99016.54;;;13.49;100.00
28027;BME280;15344;52.342;-1.290;2023-11-19T09:54:45;99017.35;;;13.50;100.00
28027;BME280;15344;52.342;-1.290;2023-11-19T09:57:12;99012.67;;;13.16;100.00
28027;BME280;15344;52.342;-1.290;2023-11-19T09:59:37;99014.18;;;12.71;100.00
28027;BME280;15344;52.342;-1.290;2023-11-19T10:02:02;99016.16;;;12.59;100.00
28027;BME280;15344;52.342;-1.290;2023-11-19T10:04:30;99016.75;;;12.80;100.00
28027;BME280;15344;52.342;-1.290;2023-11-19T10:06:52;99018.57;;;12.57;100.00
28027;BME280;15344;52.342;-1.290;2023-11-19T10:09:18;99022.05;;;13.06;100.00
28027;BME280;15344;52.342;-1.290;2023-11-19T10:11:43;99023.17;;;12.28;100.00
28027;BME280;15344;52.342;-1.290;2023-11-19T10:14:09;99021.61;;;12.21;100.00
28027;BME280;15344;52.342;-1.290;2023-11-19T10:16:35;99026.78;;;13.00;100.00
28027;BME280;15344;52.342;-1.290;2023-11-19T10:18:59;99024.69;;;12.75;100.00
28027;BME280;15344;52.342;-1.290;2023-11-19T10:21:25;99025.86;;;12.73;100.00
28027;BME280;15344;52.342;-1.290;2023-11-19T10:23:51;99024.37;;;13.10;100.00
28027;BME280;15344;52.342;-1.290;2023-11-19T10:26:15;99021.12;;;12.89;100.00
28027;BME280;15344;52.342;-1.290;2023-11-19T10:28:40;99017.52;;;13.18;100.00
28027;BME280;15344;52.342;-1.290;2023-11-19T10:31:06;99017.39;;;12.44;100.00
28027;BME280;15344;52.342;-1.290;2023-11-19T10:33:31;99017.06;;;12.75;100.00
28027;BME280;15344;52.342;-1.290;2023-11-19T10:35:57;99016.57;;;12.92;100.00
28027;BME280;15344;52.342;-1.290;2023-11-19T10:38:22;99010.70;;;13.02;100.00
28027;BME280;15344;52.342;-1.290;2023-11-19T10:40:47;99013.20;;;12.83;100.00
28027;BME280;15344;52.342;-1.290;2023-11-19T10:43:12;99009.90;;;13.24;100.00
28027;BME280;15344;52.342;-1.290;2023-11-19T10:45:39;99006.52;;;12.38;100.00
28027;BME280;15344;52.342;-1.290;2023-11-19T10:48:04;99004.40;;;12.62;100.00
28027;BME280;15344;52.342;-1.290;2023-11-19T10:50:28;98998.29;;;12.27;100.00
28027;BME280;15344;52.342;-1.290;2023-11-19T10:52:56;99004.97;;;12.75;100.00
28027;BME280;15344;52.342;-1.290;2023-11-19T10:55:21;98999.58;;;12.85;100.00
28027;BME280;15344;52.342;-1.290;2023-11-19T10:57:46;99002.43;;;12.81;100.00
28027;BME280;15344;52.342;-1.290;2023-11-19T11:00:12;99004.73;;;12.92;100.00
28027;BME280;15344;52.342;-1.290;2023-11-19T11:02:35;99003.70;;;12.57;100.00
28027;BME280;15344;52.342;-1.290;2023-11-19T11:05:01;99008.10;;;12.32;100.00
28027;BME280;15344;52.342;-1.290;2023-11-19T11:07:26;99005.06;;;12.87;100.00
28027;BME280;15344;52.342;-1.290;2023-11-19T11:09:52;99007.41;;;12.58;100.00
28027;BME280;15344;52.342;-1.290;2023-11-19T11:12:18;99004.33;;;12.62;100.00
28027;BME280;15344;52.342;-1.290;2023-11-19T11:14:42;99004.92;;;12.50;100.00
28027;BME280;15344;52.342;-1.290;2023-11-19T11:17:09;99005.54;;;13.28;100.00
28027;BME280;15344;52.342;-1.290;2023-11-19T11:19:32;98996.01;;;12.87;100.00
28027;BME280;15344;52.342;-1.290;2023-11-19T11:21:58;99000.12;;;12.55;100.00
28027;BME280;15344;52.342;-1.290;2023-11-19T11:27:01;98990.23;;;13.40;100.00
28027;BME280;15344;52.342;-1.290;2023-11-19T11:29:20;98984.31;;;13.95;100.00
28027;BME280;15344;52.342;-1.290;2023-11-19T11:31:44;98986.35;;;13.50;100.00
28027;BME280;15344;52.342;-1.290;2023-11-19T11:34:14;98974.44;;;13.68;100.00
28027;BME280;15344;52.342;-1.290;2023-11-19T11:36:31;98965.51;;;13.11;100.00
28027;BME280;15344;52.342;-1.290;2023-11-19T11:38:58;98971.16;;;13.96;100.00
28027;BME280;15344;52.342;-1.290;2023-11-19T11:41:21;98970.30;;;13.54;100.00
28027;BME280;15344;52.342;-1.290;2023-11-19T11:43:46;98963.50;;;13.53;100.00
28027;BME280;15344;52.342;-1.290;2023-11-19T11:48:42;98963.12;;;13.16;100.00
28027;BME280;15344;52.342;-1.290;2023-11-19T11:51:01;98965.20;;;13.72;100.00
28027;BME280;15344;52.342;-1.290;2023-11-19T11:53:26;98967.63;;;13.58;100.00
28027;BME280;15344;52.342;-1.290;2023-11-19T11:55:53;98954.07;;;12.94;100.00
28027;BME280;15344;52.342;-1.290;2023-11-19T11:58:18;98960.04;;;13.07;100.00
28027;BME280;15344;52.342;-1.290;2023-11-19T12:00:42;98955.48;;;13.65;100.00
28027;BME280;15344;52.342;-1.290;2023-11-19T12:03:08;98953.87;;;13.03;100.00
28027;BME280;15344;52.342;-1.290;2023-11-19T12:05:33;98951.08;;;13.20;100.00
28027;BME280;15344;52.342;-1.290;2023-11-19T12:08:00;98944.20;;;13.11;100.00
28027;BME280;15344;52.342;-1.290;2023-11-19T12:10:24;98950.87;;;12.91;100.00
28027;BME280;15344;52.342;-1.290;2023-11-19T12:12:48;98953.59;;;13.20;100.00
28027;BME280;15344;52.342;-1.290;2023-11-19T12:15:13;98943.69;;;13.21;100.00
28027;BME280;15344;52.342;-1.290;2023-11-19T12:17:47;98953.71;;;13.08;100.00
28027;BME280;15344;52.342;-1.290;2023-11-19T12:20:06;98953.43;;;13.55;100.00
28027;BME280;15344;52.342;-1.290;2023-11-19T12:22:29;98959.98;;;13.05;100.00
28027;BME280;15344;52.342;-1.290;2023-11-19T12:24:55;98955.89;;;13.08;100.00
28027;BME280;15344;52.342;-1.290;2023-11-19T12:27:20;98951.44;;;13.25;100.00
28027;BME280;15344;52.342;-1.290;2023-11-19T12:29:45;98950.57;;;13.55;100.00
28027;BME280;15344;52.342;-1.290;2023-11-19T12:32:10;98948.04;;;13.22;100.00
28027;BME280;15344;52.342;-1.290;2023-11-19T12:34:36;98948.04;;;13.42;100.00